首页
METAR-TAF:

METAR-TAF

机场 :

威尔克斯-巴里 / 斯克蘭頓, 宾夕法尼亚州, 美国

纬度: 41-20-20N, 经度: 075-43-36W, 海拔: 293米

当前天气观测

该预报发布于46分钟前的19:54 UTC
风速15节,风向西转西南
温度 4°C
湿度 65%
气压 1007 hPa
能見度: 16.1公里
少量云层高于2600英尺
阴天层高于4600英尺

METAR: KAVP 261954Z 25015KT 10SM FEW026 OVC046 04/M02 A2974 RMK AO2 SLP075 T00441022

时间: 15:40 (20:40 UTC)

预报

该预报发布于3小时和16分钟前的17:24 UTC
预报有效从26日的 18点(UTC)到 27日的 18点(UTC)
风速11节,风向西转西南
能見度: 10公里
散云层高于3000英尺
多云层高于5000英尺
从 27日的 0400点(UTC)
风速7节,风向西转西南
能見度: 10公里
多云层高于3000英尺
小阵雪
从 27日的 1400点(UTC)
风速8节,风向西
能見度: 10公里
多云层高于3500英尺

TAF: KAVP 261724Z 2618/2718 25011KT P6SM SCT030 BKN050 FM270400 24007KT P6SM -SHSN BKN030 FM271400 28008KT P6SM BKN035

超过4000个机场的气象观测和天气预报(METAR&TAF报告)。

可查询的气象台以黄色和红色小点在地图上表示。

将鼠标移到小点上方,可查看气象台名称。

然后点击查看天气观测和预报。

如需切换地图:点击带黑十字的绿色按钮放大地图;点击带横线的绿色按钮缩小地图;或者点击绿色箭头查看邻近地区的地图。


METAR-TAF: